createdAt,value
2016-05-22T00:00:36.829Z,0
2016-05-22T00:01:36.831Z,0
2016-05-22T00:02:36.802Z,0
2016-05-22T00:03:36.649Z,0
2016-05-22T00:04:36.792Z,0
2016-05-22T00:05:36.654Z,0
2016-05-22T00:06:36.782Z,0
2016-05-22T00:07:36.612Z,0
2016-05-22T00:08:36.772Z,0
2016-05-22T00:09:36.759Z,0
2016-05-22T00:10:36.761Z,0
2016-05-22T00:11:36.734Z,0
2016-05-22T00:12:36.532Z,0
2016-05-22T00:13:36.753Z,0
2016-05-22T00:14:37.413Z,0
2016-05-22T00:15:36.525Z,0
2016-05-22T00:16:36.668Z,0
2016-05-22T00:17:36.499Z,0
2016-05-22T00:18:36.642Z,0
2016-05-22T00:19:36.645Z,0
2016-05-22T00:20:36.632Z,0
2016-05-22T00:21:36.619Z,0
2016-05-22T00:22:36.606Z,0
2016-05-22T00:23:36.624Z,0
2016-05-22T00:24:36.628Z,0
2016-05-22T00:25:36.739Z,0
2016-05-22T00:26:36.413Z,0
2016-05-22T00:27:36.386Z,0
2016-05-22T00:28:36.404Z,0
2016-05-22T00:29:36.547Z,0
2016-05-22T00:30:36.362Z,0
2016-05-22T00:31:36.365Z,0
2016-05-22T00:32:36.493Z,0
2016-05-22T00:33:36.479Z,0
2016-05-22T00:34:36.482Z,0
2016-05-22T00:35:36.469Z,0
2016-05-22T00:36:36.316Z,0
2016-05-22T00:37:36.146Z,0
2016-05-22T00:38:36.290Z,0
2016-05-22T00:39:36.418Z,0
2016-05-22T00:40:36.420Z,0
2016-05-22T00:41:36.282Z,0
2016-05-22T00:42:36.770Z,0
2016-05-22T00:43:36.397Z,0
2016-05-22T00:44:36.385Z,0
2016-05-22T00:45:36.215Z,0
2016-05-22T00:46:36.202Z,0
2016-05-22T00:47:36.346Z,0
2016-05-22T00:48:36.333Z,0
2016-05-22T00:49:36.319Z,0
2016-05-22T00:50:36.322Z,0
2016-05-22T00:51:35.997Z,0
2016-05-22T00:52:36.297Z,0
2016-05-22T00:53:36.283Z,0
2016-05-22T00:54:36.286Z,0
2016-05-22T00:55:36.258Z,0
2016-05-22T00:56:36.244Z,0
2016-05-22T00:57:36.560Z,0
2016-05-22T00:58:36.078Z,0
2016-05-22T00:59:36.206Z,0
2016-05-22T01:00:36.224Z,0
2016-05-22T01:01:36.196Z,0
2016-05-22T01:02:36.182Z,0
2016-05-22T01:03:36.169Z,0
2016-05-22T01:04:36.157Z,0
2016-05-22T01:05:36.159Z,0
2016-05-22T01:06:36.146Z,0
2016-05-22T01:07:36.134Z,0
2016-05-22T01:08:35.824Z,0
2016-05-22T01:09:36.123Z,0
2016-05-22T01:10:36.095Z,0
2016-05-22T01:11:35.926Z,0
2016-05-22T01:12:35.959Z,0
2016-05-22T01:13:35.915Z,0
2016-05-22T01:14:35.903Z,0
2016-05-22T01:15:35.889Z,0
2016-05-22T01:16:36.034Z,0
2016-05-22T01:17:36.020Z,0
2016-05-22T01:18:36.006Z,0
2016-05-22T01:19:35.853Z,0
2016-05-22T01:20:35.825Z,0
2016-05-22T01:21:35.968Z,0
2016-05-22T01:22:36.003Z,0
2016-05-22T01:23:35.817Z,0
2016-05-22T01:24:35.945Z,0
2016-05-22T01:25:35.791Z,0
2016-05-22T01:26:35.450Z,0
2016-05-22T01:27:35.859Z,0
2016-05-22T01:28:35.768Z,0
2016-05-22T01:29:35.896Z,0
2016-05-22T01:30:35.726Z,0
2016-05-22T01:31:35.557Z,0
2016-05-22T01:32:35.841Z,0
2016-05-22T01:33:35.829Z,0
2016-05-22T01:34:35.831Z,0
2016-05-22T01:35:35.818Z,0
2016-05-22T01:36:35.665Z,0
2016-05-22T01:37:35.793Z,0
2016-05-22T01:38:35.623Z,0
2016-05-22T01:39:35.610Z,0
2016-05-22T01:40:35.753Z,0
2016-05-22T01:41:35.757Z,0
2016-05-22T01:42:36.306Z,0
2016-05-22T01:43:35.715Z,0
2016-05-22T01:44:35.701Z,0
2016-05-22T01:45:35.704Z,0
2016-05-22T01:46:35.520Z,0
2016-05-22T01:47:35.679Z,0
2016-05-22T01:48:35.665Z,0
2016-05-22T01:49:35.497Z,0
2016-05-22T01:50:35.640Z,0
2016-05-22T01:51:35.627Z,0
2016-05-22T01:52:35.630Z,0
2016-05-22T01:53:35.616Z,0
2016-05-22T01:54:35.589Z,0
2016-05-22T01:55:35.278Z,0
2016-05-22T01:56:35.422Z,0
2016-05-22T01:57:35.564Z,0
2016-05-22T01:58:35.552Z,0
2016-05-22T01:59:35.539Z,0
2016-05-22T02:00:35.542Z,0
2016-05-22T02:01:35.372Z,0
2016-05-22T02:02:35.500Z,0
2016-05-22T02:03:35.487Z,0
2016-05-22T02:04:35.163Z,0
2016-05-22T02:05:35.461Z,0
2016-05-22T02:06:35.292Z,0
2016-05-22T02:07:35.389Z,0
2016-05-22T02:08:35.438Z,0
2016-05-22T02:09:35.426Z,0
2016-05-22T02:10:35.412Z,0
2016-05-22T02:11:35.399Z,0
2016-05-22T02:12:35.652Z,0
2016-05-22T02:13:35.374Z,0
2016-05-22T02:14:35.392Z,0
2016-05-22T02:15:35.363Z,0
2016-05-22T02:16:35.335Z,0
2016-05-22T02:17:35.165Z,0
2016-05-22T02:18:35.309Z,0
2016-05-22T02:19:35.171Z,0
2016-05-22T02:20:35.284Z,0
2016-05-22T02:21:35.270Z,0
2016-05-22T02:22:35.101Z,0
2016-05-22T02:23:35.103Z,0
2016-05-22T02:24:35.247Z,0
2016-05-22T02:25:35.078Z,0
2016-05-22T02:26:35.206Z,0
2016-05-22T02:27:35.302Z,0
2016-05-22T02:28:35.195Z,0
2016-05-22T02:29:35.011Z,0
2016-05-22T02:30:35.153Z,0
2016-05-22T02:31:35.156Z,0
2016-05-22T02:32:35.019Z,0
2016-05-22T02:33:34.975Z,0
2016-05-22T02:34:34.961Z,0
2016-05-22T02:35:34.949Z,0
2016-05-22T02:36:35.123Z,0
2016-05-22T02:37:35.079Z,0
2016-05-22T02:38:35.066Z,0
2016-05-22T02:39:35.085Z,0
2016-05-22T02:40:35.040Z,0
2016-05-22T02:41:35.027Z,0
2016-05-22T02:42:35.186Z,0
2016-05-22T02:43:35.017Z,0
2016-05-22T02:44:34.987Z,0
2016-05-22T02:45:34.991Z,0
2016-05-22T02:46:35.009Z,0
2016-05-22T02:47:34.996Z,0
2016-05-22T02:48:34.952Z,0
2016-05-22T02:49:34.939Z,0
2016-05-22T02:50:34.926Z,0
2016-05-22T02:51:34.914Z,0
2016-05-22T02:52:34.900Z,0
2016-05-22T02:53:34.887Z,0
2016-05-22T02:54:34.750Z,0
2016-05-22T02:55:34.861Z,0
2016-05-22T02:56:34.864Z,0
2016-05-22T02:57:34.742Z,0
2016-05-22T02:58:34.869Z,0
2016-05-22T02:59:34.825Z,0
2016-05-22T03:00:34.813Z,0
2016-05-22T03:01:34.644Z,0
2016-05-22T03:02:34.771Z,0
2016-05-22T03:03:34.773Z,0
2016-05-22T03:04:34.605Z,0
2016-05-22T03:05:34.779Z,0
2016-05-22T03:06:34.766Z,0
2016-05-22T03:07:34.769Z,0
2016-05-22T03:08:34.710Z,0
2016-05-22T03:09:34.696Z,0
2016-05-22T03:10:34.682Z,0
2016-05-22T03:11:34.685Z,0
2016-05-22T03:12:34.516Z,0
2016-05-22T03:13:34.660Z,0
2016-05-22T03:14:34.678Z,0
2016-05-22T03:15:34.618Z,0
2016-05-22T03:16:34.606Z,0
2016-05-22T03:17:34.592Z,0
2016-05-22T03:18:34.580Z,0
2016-05-22T03:19:34.598Z,0
2016-05-22T03:20:34.570Z,0
2016-05-22T03:21:34.556Z,0
2016-05-22T03:22:34.543Z,0
2016-05-22T03:23:34.375Z,0
2016-05-22T03:24:34.361Z,0
2016-05-22T03:25:34.505Z,0
2016-05-22T03:26:34.351Z,0
2016-05-22T03:27:35.119Z,0
2016-05-22T03:28:34.466Z,0
2016-05-22T03:29:34.328Z,0
2016-05-22T03:30:34.348Z,0
2016-05-22T03:31:34.522Z,0
2016-05-22T03:32:34.386Z,5
2016-05-22T03:33:34.560Z,5
2016-05-22T03:34:34.568Z,5
2016-05-22T03:35:34.566Z,5
2016-05-22T03:36:34.563Z,5
2016-05-22T03:37:34.563Z,5
2016-05-22T03:38:34.419Z,5
2016-05-22T03:39:34.399Z,5
2016-05-22T03:40:34.546Z,5
2016-05-22T03:41:34.381Z,10
2016-05-22T03:42:34.856Z,10
2016-05-22T03:43:34.364Z,10
2016-05-22T03:44:34.525Z,10
2016-05-22T03:45:34.358Z,10
2016-05-22T03:46:34.346Z,10
2016-05-22T03:47:34.491Z,10
2016-05-22T03:48:34.480Z,10
2016-05-22T03:49:34.467Z,10
2016-05-22T03:50:34.440Z,10
2016-05-22T03:51:34.427Z,10
2016-05-22T03:52:34.446Z,10
2016-05-22T03:53:34.105Z,10
2016-05-22T03:54:34.405Z,15
2016-05-22T03:55:34.376Z,15
2016-05-22T03:56:34.378Z,15
2016-05-22T03:57:33.897Z,15
2016-05-22T03:58:34.352Z,15
2016-05-22T03:59:34.340Z,15
2016-05-22T04:00:34.327Z,15
2016-05-22T04:01:34.017Z,20
2016-05-22T04:02:34.301Z,20
2016-05-22T04:03:34.351Z,20
2016-05-22T04:04:34.290Z,20
2016-05-22T04:05:34.262Z,20
2016-05-22T04:06:34.250Z,20
2016-05-22T04:07:34.252Z,20
2016-05-22T04:08:34.239Z,20
2016-05-22T04:09:34.242Z,20
2016-05-22T04:10:34.213Z,20
2016-05-22T04:11:34.216Z,25
2016-05-22T04:12:34.407Z,25
2016-05-22T04:13:34.174Z,25
2016-05-22T04:14:34.161Z,25
2016-05-22T04:15:33.992Z,25
2016-05-22T04:16:34.136Z,25
2016-05-22T04:17:34.123Z,25
2016-05-22T04:18:34.126Z,25
2016-05-22T04:19:34.113Z,25
2016-05-22T04:20:34.099Z,30
2016-05-22T04:21:34.087Z,30
2016-05-22T04:22:34.089Z,30
2016-05-22T04:23:34.076Z,35
2016-05-22T04:24:34.048Z,35
2016-05-22T04:25:34.051Z,35
2016-05-22T04:26:34.038Z,40
2016-05-22T04:27:34.462Z,40
2016-05-22T04:28:34.012Z,40
2016-05-22T04:29:34.014Z,40
2016-05-22T04:30:33.986Z,45
2016-05-22T04:31:33.988Z,45
2016-05-22T04:32:33.975Z,45
2016-05-22T04:33:33.807Z,45
2016-05-22T04:34:33.793Z,50
2016-05-22T04:35:33.780Z,50
2016-05-22T04:36:33.924Z,50
2016-05-22T04:37:33.755Z,45
2016-05-22T04:38:33.898Z,50
2016-05-22T04:39:33.729Z,50
2016-05-22T04:40:33.871Z,55
2016-05-22T04:41:33.734Z,55
2016-05-22T04:42:34.627Z,60
2016-05-22T04:43:33.693Z,60
2016-05-22T04:44:33.820Z,60
2016-05-22T04:45:33.823Z,60
2016-05-22T04:46:33.810Z,60
2016-05-22T04:47:33.781Z,65
2016-05-22T04:48:33.784Z,65
2016-05-22T04:49:33.771Z,70
2016-05-22T04:50:33.462Z,70
2016-05-22T04:51:33.745Z,75
2016-05-22T04:52:33.748Z,75
2016-05-22T04:53:33.735Z,75
2016-05-22T04:54:33.722Z,75
2016-05-22T04:55:33.694Z,75
2016-05-22T04:56:33.696Z,75
2016-05-22T04:57:34.652Z,75
2016-05-22T04:58:33.514Z,75
2016-05-22T04:59:33.658Z,70
2016-05-22T05:00:33.660Z,70
2016-05-22T05:01:33.507Z,70
2016-05-22T05:02:33.477Z,70
2016-05-22T05:03:33.465Z,70
2016-05-22T05:04:33.608Z,70
2016-05-22T05:05:33.596Z,70
2016-05-22T05:06:33.582Z,70
2016-05-22T05:07:33.273Z,70
2016-05-22T05:08:33.401Z,70
2016-05-22T05:09:33.418Z,75
2016-05-22T05:10:33.547Z,75
2016-05-22T05:11:33.377Z,75
2016-05-22T05:12:33.536Z,70
2016-05-22T05:13:33.539Z,75
2016-05-22T05:14:33.495Z,75
2016-05-22T05:15:33.497Z,80
2016-05-22T05:16:33.344Z,85
2016-05-22T05:17:33.487Z,85
2016-05-22T05:18:33.473Z,85
2016-05-22T05:19:33.445Z,85
2016-05-22T05:20:33.448Z,80
2016-05-22T05:21:33.451Z,80
2016-05-22T05:22:33.423Z,80
2016-05-22T05:23:33.426Z,80
2016-05-22T05:24:33.771Z,75
2016-05-22T05:25:33.399Z,75
2016-05-22T05:26:33.387Z,75
2016-05-22T05:27:33.373Z,75
2016-05-22T05:28:33.673Z,75
2016-05-22T05:29:33.348Z,70
2016-05-22T05:30:33.022Z,65
2016-05-22T05:31:33.165Z,60
2016-05-22T05:32:33.325Z,60
2016-05-22T05:33:33.171Z,65
2016-05-22T05:34:33.299Z,65
2016-05-22T05:35:32.989Z,70
2016-05-22T05:36:33.117Z,75
2016-05-22T05:37:33.291Z,80
2016-05-22T05:38:33.263Z,85
2016-05-22T05:39:33.249Z,85
2016-05-22T05:40:33.252Z,90
2016-05-22T05:41:33.240Z,90
2016-05-22T05:42:33.243Z,90
2016-05-22T05:43:32.932Z,90
2016-05-22T05:44:33.059Z,95
2016-05-22T05:45:33.062Z,90
2016-05-22T05:46:33.034Z,85
2016-05-22T05:47:33.192Z,90
2016-05-22T05:48:33.165Z,90
2016-05-22T05:49:33.151Z,90
2016-05-22T05:50:33.139Z,95
2016-05-22T05:51:33.141Z,105
2016-05-22T05:52:33.129Z,100
2016-05-22T05:53:33.115Z,85
2016-05-22T05:54:33.103Z,80
2016-05-22T05:55:33.105Z,75
2016-05-22T05:56:32.920Z,75
2016-05-22T05:57:33.517Z,75
2016-05-22T05:58:33.566Z,80
2016-05-22T05:59:32.897Z,85
2016-05-22T06:00:33.041Z,90
2016-05-22T06:01:33.043Z,85
2016-05-22T06:02:33.030Z,90
2016-05-22T06:03:32.860Z,95
2016-05-22T06:04:33.005Z,90
2016-05-22T06:05:32.835Z,90
2016-05-22T06:06:32.978Z,90
2016-05-22T06:07:32.981Z,90
2016-05-22T06:08:32.968Z,90
2016-05-22T06:09:32.955Z,95
2016-05-22T06:10:32.943Z,100
2016-05-22T06:11:32.929Z,105
2016-05-22T06:12:32.760Z,110
2016-05-22T06:13:32.872Z,120
2016-05-22T06:14:32.907Z,130
2016-05-22T06:15:32.737Z,140
2016-05-22T06:16:32.896Z,150
2016-05-22T06:17:32.899Z,155
2016-05-22T06:18:32.871Z,150
2016-05-22T06:19:32.857Z,150
2016-05-22T06:20:32.844Z,155
2016-05-22T06:21:32.831Z,165
2016-05-22T06:22:32.678Z,170
2016-05-22T06:23:32.821Z,170
2016-05-22T06:24:32.668Z,170
2016-05-22T06:25:32.795Z,175
2016-05-22T06:26:32.797Z,175
2016-05-22T06:27:32.629Z,180
2016-05-22T06:28:32.506Z,180
2016-05-22T06:29:32.775Z,180
2016-05-22T06:30:32.762Z,180
2016-05-22T06:31:32.593Z,180
2016-05-22T06:32:32.751Z,175
2016-05-22T06:33:32.722Z,170
2016-05-22T06:34:32.741Z,165
2016-05-22T06:35:32.556Z,155
2016-05-22T06:36:32.559Z,150
2016-05-22T06:37:32.546Z,145
2016-05-22T06:38:32.673Z,145
2016-05-22T06:39:32.895Z,140
2016-05-22T06:40:32.663Z,140
2016-05-22T06:41:32.510Z,135
2016-05-22T06:42:32.654Z,140
2016-05-22T06:43:32.360Z,140
2016-05-22T06:44:32.643Z,140
2016-05-22T06:45:32.332Z,140
2016-05-22T06:46:32.633Z,135
2016-05-22T06:47:32.604Z,140
2016-05-22T06:48:32.623Z,150
2016-05-22T06:49:32.438Z,155
2016-05-22T06:50:32.596Z,155
2016-05-22T06:51:32.598Z,155
2016-05-22T06:52:32.570Z,170
2016-05-22T06:53:32.573Z,180
2016-05-22T06:54:32.404Z,190
2016-05-22T06:55:32.548Z,200
2016-05-22T06:56:32.534Z,205
2016-05-22T06:57:32.725Z,210
2016-05-22T06:58:32.603Z,210
2016-05-22T06:59:32.402Z,215
2016-05-22T07:00:32.359Z,215
2016-05-22T07:01:32.361Z,215
2016-05-22T07:02:32.503Z,220
2016-05-22T07:03:32.506Z,220
2016-05-22T07:04:32.322Z,215
2016-05-22T07:05:32.308Z,215
2016-05-22T07:06:32.468Z,215
2016-05-22T07:07:32.455Z,220
2016-05-22T07:08:32.286Z,220
2016-05-22T07:09:32.460Z,225
2016-05-22T07:10:32.463Z,230
2016-05-22T07:11:32.435Z,240
2016-05-22T07:12:32.265Z,240
2016-05-22T07:13:32.752Z,245
2016-05-22T07:14:32.396Z,250
2016-05-22T07:15:32.413Z,250
2016-05-22T07:16:32.229Z,255
2016-05-22T07:17:32.388Z,260
2016-05-22T07:18:32.235Z,260
2016-05-22T07:19:32.206Z,265
2016-05-22T07:20:32.365Z,275
2016-05-22T07:21:32.352Z,280
2016-05-22T07:22:32.340Z,280
2016-05-22T07:23:32.185Z,280
2016-05-22T07:24:32.345Z,285
2016-05-22T07:25:32.316Z,325
2016-05-22T07:26:32.334Z,585
2016-05-22T07:27:32.321Z,870
2016-05-22T07:28:32.308Z,860
2016-05-22T07:29:32.139Z,760
2016-05-22T07:30:32.142Z,740
2016-05-22T07:31:32.286Z,670
2016-05-22T07:32:32.288Z,455
2016-05-22T07:33:32.274Z,440
2016-05-22T07:34:32.277Z,385
2016-05-22T07:35:32.109Z,465
2016-05-22T07:36:32.252Z,545
2016-05-22T07:37:32.098Z,500
2016-05-22T07:38:32.241Z,360
2016-05-22T07:39:32.260Z,540
2016-05-22T07:40:32.184Z,520
2016-05-22T07:41:32.233Z,395
2016-05-22T07:42:32.221Z,410
2016-05-22T07:43:32.083Z,325
2016-05-22T07:44:32.070Z,370
2016-05-22T07:45:32.213Z,355
2016-05-22T07:46:32.059Z,375
2016-05-22T07:47:32.203Z,405
2016-05-22T07:48:32.191Z,425
2016-05-22T07:49:32.193Z,425
2016-05-22T07:50:32.179Z,505
2016-05-22T07:51:32.182Z,430
2016-05-22T07:52:32.013Z,465
2016-05-22T07:53:32.015Z,515
2016-05-22T07:54:32.019Z,450
2016-05-22T07:55:32.146Z,500
2016-05-22T07:56:32.148Z,550
2016-05-22T07:57:32.137Z,545
2016-05-22T07:58:32.045Z,650
2016-05-22T07:59:31.813Z,675
2016-05-22T08:00:32.145Z,730
2016-05-22T08:01:31.960Z,740
2016-05-22T08:02:32.119Z,885
2016-05-22T08:03:31.949Z,955
2016-05-22T08:04:32.109Z,1035
2016-05-22T08:05:31.955Z,1055
2016-05-22T08:06:32.097Z,570
2016-05-22T08:07:31.928Z,465
2016-05-22T08:08:32.088Z,950
2016-05-22T08:09:32.091Z,995
2016-05-22T08:10:31.937Z,885
2016-05-22T08:11:32.189Z,815
2016-05-22T08:12:32.067Z,860
2016-05-22T08:13:32.601Z,965
2016-05-22T08:14:32.057Z,900
2016-05-22T08:15:31.887Z,840
2016-05-22T08:16:32.046Z,870
2016-05-22T08:17:32.049Z,820
2016-05-22T08:18:32.052Z,925
2016-05-22T08:19:32.210Z,910
2016-05-22T08:20:32.401Z,935
2016-05-22T08:21:32.185Z,1020
2016-05-22T08:22:32.063Z,1195
2016-05-22T08:23:31.753Z,1295
2016-05-22T08:24:31.865Z,1210
2016-05-22T08:25:32.024Z,1335
2016-05-22T08:26:32.026Z,1455
2016-05-22T08:27:31.857Z,1420
2016-05-22T08:28:32.298Z,1310
2016-05-22T08:29:31.879Z,1240
2016-05-22T08:30:32.428Z,1100
2016-05-22T08:31:32.134Z,965
2016-05-22T08:32:32.074Z,995
2016-05-22T08:33:32.124Z,960
2016-05-22T08:34:32.033Z,1140
2016-05-22T08:35:32.020Z,1245
2016-05-22T08:36:32.272Z,1060
2016-05-22T08:37:32.088Z,1195
2016-05-22T08:38:32.027Z,1225
2016-05-22T08:39:31.984Z,1170
2016-05-22T08:40:31.846Z,1145
2016-05-22T08:41:31.833Z,1195
2016-05-22T08:42:32.054Z,1155
2016-05-22T08:43:32.416Z,1260
2016-05-22T08:44:31.982Z,1260
2016-05-22T08:45:31.969Z,1225
2016-05-22T08:46:31.971Z,1150
2016-05-22T08:47:31.833Z,1295
2016-05-22T08:48:31.679Z,1155
2016-05-22T08:49:31.807Z,935
2016-05-22T08:50:31.966Z,980
2016-05-22T08:51:31.984Z,665
2016-05-22T08:52:31.815Z,800
2016-05-22T08:53:31.959Z,805
2016-05-22T08:54:31.962Z,665
2016-05-22T08:55:31.651Z,560
2016-05-22T08:56:31.967Z,625
2016-05-22T08:57:32.235Z,605
2016-05-22T08:58:31.831Z,590
2016-05-22T08:59:31.975Z,725
2016-05-22T09:00:31.977Z,725
2016-05-22T09:01:31.948Z,655
2016-05-22T09:02:31.795Z,630
2016-05-22T09:03:31.954Z,545
2016-05-22T09:04:31.956Z,665
2016-05-22T09:05:31.944Z,635
2016-05-22T09:06:31.947Z,530
2016-05-22T09:07:31.950Z,595
2016-05-22T09:08:31.936Z,635
2016-05-22T09:09:31.939Z,605
2016-05-22T09:10:31.614Z,855
2016-05-22T09:11:31.913Z,595
2016-05-22T09:12:31.932Z,760
2016-05-22T09:13:31.950Z,570
2016-05-22T09:14:31.922Z,585
2016-05-22T09:15:31.924Z,580
2016-05-22T09:16:31.754Z,525
2016-05-22T09:17:31.913Z,490
2016-05-22T09:18:31.744Z,450
2016-05-22T09:19:31.904Z,490
2016-05-22T09:20:31.749Z,610
2016-05-22T09:21:31.737Z,605
2016-05-22T09:22:31.896Z,975
2016-05-22T09:23:31.883Z,980
2016-05-22T09:24:31.948Z,960
2016-05-22T09:25:31.888Z,565
2016-05-22T09:26:31.876Z,575
2016-05-22T09:27:31.878Z,525
2016-05-22T09:28:31.912Z,510
2016-05-22T09:29:31.884Z,525
2016-05-22T09:30:31.871Z,535
2016-05-22T09:31:31.702Z,530
2016-05-22T09:32:31.861Z,510
2016-05-22T09:33:31.847Z,535
2016-05-22T09:34:31.850Z,590
2016-05-22T09:35:31.837Z,635
2016-05-22T09:36:31.824Z,425
2016-05-22T09:37:31.842Z,380
2016-05-22T09:38:31.845Z,390
2016-05-22T09:39:31.833Z,415
2016-05-22T09:40:31.835Z,415
2016-05-22T09:41:31.666Z,515
2016-05-22T09:42:31.669Z,535
2016-05-22T09:43:32.296Z,520
2016-05-22T09:44:31.799Z,535
2016-05-22T09:45:31.643Z,735
2016-05-22T09:46:31.802Z,525
2016-05-22T09:47:31.805Z,545
2016-05-22T09:48:31.791Z,510
2016-05-22T09:49:31.497Z,500
2016-05-22T09:50:31.782Z,490
2016-05-22T09:51:31.784Z,505
2016-05-22T09:52:31.771Z,610
2016-05-22T09:53:31.774Z,560
2016-05-22T09:54:31.761Z,610
2016-05-22T09:55:31.763Z,715
2016-05-22T09:56:31.610Z,565
2016-05-22T09:57:31.596Z,720
2016-05-22T09:58:32.399Z,730
2016-05-22T09:59:31.602Z,585
2016-05-22T10:00:31.745Z,610
2016-05-22T10:01:31.764Z,595
2016-05-22T10:02:31.751Z,590
2016-05-22T10:03:31.737Z,595
2016-05-22T10:04:31.725Z,595
2016-05-22T10:05:31.728Z,650
2016-05-22T10:06:31.715Z,625
2016-05-22T10:07:31.718Z,595
2016-05-22T10:08:31.720Z,575
2016-05-22T10:09:31.708Z,505
2016-05-22T10:10:31.710Z,465
2016-05-22T10:11:31.697Z,435
2016-05-22T10:12:31.559Z,420
2016-05-22T10:13:31.671Z,410
2016-05-22T10:14:31.705Z,400
2016-05-22T10:15:31.692Z,395
2016-05-22T10:16:31.679Z,385
2016-05-22T10:17:31.698Z,385
2016-05-22T10:18:31.668Z,385
2016-05-22T10:19:31.672Z,390
2016-05-22T10:20:31.674Z,375
2016-05-22T10:21:31.505Z,345
2016-05-22T10:22:31.508Z,335
2016-05-22T10:23:31.510Z,350
2016-05-22T10:24:31.654Z,365
2016-05-22T10:25:31.657Z,370
2016-05-22T10:26:31.643Z,375
2016-05-22T10:27:31.474Z,375
2016-05-22T10:28:31.759Z,395
2016-05-22T10:29:31.620Z,415
2016-05-22T10:30:31.467Z,470
2016-05-22T10:31:31.656Z,505
2016-05-22T10:32:31.613Z,545
2016-05-22T10:33:31.460Z,585
2016-05-22T10:34:31.603Z,540
2016-05-22T10:35:31.449Z,525
2016-05-22T10:36:31.593Z,415
2016-05-22T10:37:31.595Z,395
2016-05-22T10:38:31.582Z,440
2016-05-22T10:39:31.569Z,475
2016-05-22T10:40:31.431Z,530
2016-05-22T10:41:31.419Z,545
2016-05-22T10:42:31.406Z,720
2016-05-22T10:43:31.549Z,685
2016-05-22T10:44:31.552Z,635
2016-05-22T10:45:31.397Z,485
2016-05-22T10:46:31.542Z,585
2016-05-22T10:47:31.387Z,1155
2016-05-22T10:48:31.390Z,1420
2016-05-22T10:49:31.533Z,1860
2016-05-22T10:50:31.396Z,2075
2016-05-22T10:51:31.539Z,2160
2016-05-22T10:52:31.369Z,2120
2016-05-22T10:53:31.529Z,2040
2016-05-22T10:54:31.375Z,1915
2016-05-22T10:55:31.535Z,1690
2016-05-22T10:56:31.194Z,1880
2016-05-22T10:57:31.351Z,2180
2016-05-22T10:58:31.370Z,1845
2016-05-22T10:59:31.357Z,1500
2016-05-22T11:00:31.501Z,635
2016-05-22T11:01:31.519Z,520
2016-05-22T11:02:31.350Z,315
2016-05-22T11:03:31.509Z,280
2016-05-22T11:04:31.340Z,275
2016-05-22T11:05:31.359Z,285
2016-05-22T11:06:31.517Z,310
2016-05-22T11:07:31.503Z,370
2016-05-22T11:08:31.491Z,365
2016-05-22T11:09:31.494Z,335
2016-05-22T11:10:31.480Z,360
2016-05-22T11:11:31.484Z,425
2016-05-22T11:12:31.486Z,610
2016-05-22T11:13:31.708Z,800
2016-05-22T11:14:31.475Z,2000
2016-05-22T11:15:31.478Z,1165
2016-05-22T11:16:31.481Z,2265
2016-05-22T11:17:31.469Z,2350
2016-05-22T11:18:31.486Z,1285
2016-05-22T11:19:31.474Z,530
2016-05-22T11:20:31.476Z,435
2016-05-22T11:21:31.463Z,435
2016-05-22T11:22:31.154Z,345
2016-05-22T11:23:31.469Z,310
2016-05-22T11:24:31.488Z,285
2016-05-22T11:25:31.662Z,275
2016-05-22T11:26:31.305Z,280
2016-05-22T11:27:31.464Z,300
2016-05-22T11:28:31.810Z,320
2016-05-22T11:29:31.438Z,335
2016-05-22T11:30:31.440Z,360
2016-05-22T11:31:31.428Z,405
2016-05-22T11:32:31.509Z,465
2016-05-22T11:33:31.277Z,585
2016-05-22T11:34:31.280Z,585
2016-05-22T11:35:31.439Z,540
2016-05-22T11:36:31.426Z,580
2016-05-22T11:37:31.273Z,605
2016-05-22T11:38:31.415Z,540
2016-05-22T11:39:31.262Z,685
2016-05-22T11:40:31.248Z,585
2016-05-22T11:41:31.408Z,515
2016-05-22T11:42:31.254Z,490
2016-05-22T11:43:31.336Z,540
2016-05-22T11:44:31.244Z,640
2016-05-22T11:45:31.387Z,825
2016-05-22T11:46:31.234Z,2215
2016-05-22T11:47:31.378Z,2095
2016-05-22T11:48:31.067Z,1810
2016-05-22T11:49:31.382Z,2180
2016-05-22T11:50:31.198Z,2035
2016-05-22T11:51:31.357Z,1945
2016-05-22T11:52:31.203Z,1935
2016-05-22T11:53:31.347Z,1300
2016-05-22T11:54:31.208Z,800
2016-05-22T11:55:31.352Z,950
2016-05-22T11:56:31.355Z,1000
2016-05-22T11:57:31.341Z,1845
2016-05-22T11:58:31.110Z,1715
2016-05-22T11:59:31.346Z,1585
2016-05-22T12:00:31.396Z,1385
2016-05-22T12:01:31.040Z,1120
2016-05-22T12:02:31.027Z,295
2016-05-22T12:03:31.343Z,190
2016-05-22T12:04:31.392Z,170
2016-05-22T12:05:31.348Z,170
2016-05-22T12:06:31.365Z,185
2016-05-22T12:07:31.181Z,190
2016-05-22T12:08:31.340Z,195
2016-05-22T12:09:31.358Z,250
2016-05-22T12:10:31.345Z,275
2016-05-22T12:11:31.192Z,320
2016-05-22T12:12:31.367Z,315
2016-05-22T12:13:32.151Z,295
2016-05-22T12:14:31.339Z,280
2016-05-22T12:15:31.172Z,255
2016-05-22T12:16:31.205Z,260
2016-05-22T12:17:31.177Z,265
2016-05-22T12:18:31.320Z,275
2016-05-22T12:19:31.322Z,295
2016-05-22T12:20:31.325Z,365
2016-05-22T12:21:31.327Z,1015
2016-05-22T12:22:31.330Z,1005
2016-05-22T12:23:31.302Z,560
2016-05-22T12:24:31.180Z,755
2016-05-22T12:25:31.339Z,685
2016-05-22T12:26:31.311Z,615
2016-05-22T12:27:31.141Z,525
2016-05-22T12:28:31.737Z,470
2016-05-22T12:29:31.162Z,445
2016-05-22T12:30:31.290Z,410
2016-05-22T12:31:31.307Z,415
2016-05-22T12:32:31.342Z,380
2016-05-22T12:33:31.141Z,370
2016-05-22T12:34:31.300Z,395
2016-05-22T12:35:31.162Z,365
2016-05-22T12:36:31.178Z,350
2016-05-22T12:37:31.155Z,350
2016-05-22T12:38:31.350Z,325
2016-05-22T12:39:31.388Z,295
2016-05-22T12:40:31.347Z,275
2016-05-22T12:41:31.377Z,255
2016-05-22T12:42:31.371Z,255
2016-05-22T12:43:31.272Z,290
2016-05-22T12:44:31.359Z,315
2016-05-22T12:45:31.385Z,330
2016-05-22T12:46:31.234Z,380
2016-05-22T12:47:31.397Z,460
2016-05-22T12:48:31.370Z,515
2016-05-22T12:49:31.361Z,505
2016-05-22T12:50:31.349Z,500
2016-05-22T12:51:31.198Z,515
2016-05-22T12:52:31.341Z,530
2016-05-22T12:53:31.205Z,470
2016-05-22T12:54:31.348Z,490
2016-05-22T12:55:31.337Z,495
2016-05-22T12:56:31.324Z,440
2016-05-22T12:57:31.327Z,555
2016-05-22T12:58:31.783Z,435
2016-05-22T12:59:31.333Z,435
2016-05-22T13:00:31.322Z,480
2016-05-22T13:01:31.011Z,490
2016-05-22T13:02:31.311Z,430
2016-05-22T13:03:31.330Z,380
2016-05-22T13:04:31.318Z,330
2016-05-22T13:05:31.148Z,290
2016-05-22T13:06:31.293Z,290
2016-05-22T13:07:31.279Z,315
2016-05-22T13:08:31.298Z,305
2016-05-22T13:09:31.113Z,290
2016-05-22T13:10:31.115Z,270
2016-05-22T13:11:31.273Z,270
2016-05-22T13:12:31.120Z,275
2016-05-22T13:13:31.670Z,300
2016-05-22T13:14:31.251Z,280
2016-05-22T13:15:31.098Z,260
2016-05-22T13:16:31.272Z,225
2016-05-22T13:17:31.259Z,190
2016-05-22T13:18:31.247Z,150
2016-05-22T13:19:31.249Z,145
2016-05-22T13:20:31.236Z,135
2016-05-22T13:21:31.255Z,125
2016-05-22T13:22:31.210Z,125
2016-05-22T13:23:31.228Z,125
2016-05-22T13:24:31.356Z,120
2016-05-22T13:25:31.078Z,125
2016-05-22T13:26:31.205Z,145
2016-05-22T13:27:33.348Z,175
2016-05-22T13:28:30.899Z,210
2016-05-22T13:29:31.026Z,225
2016-05-22T13:30:31.043Z,225
2016-05-22T13:31:32.922Z,220
2016-05-22T13:32:31.174Z,235
2016-05-22T13:33:31.162Z,250
2016-05-22T13:34:31.165Z,260
2016-05-22T13:35:31.151Z,260
2016-05-22T13:36:31.154Z,250
2016-05-22T13:37:31.140Z,230
2016-05-22T13:38:31.144Z,230
2016-05-22T13:39:30.974Z,245
2016-05-22T13:40:31.134Z,260
2016-05-22T13:41:31.136Z,270
2016-05-22T13:42:31.123Z,315
2016-05-22T13:43:31.657Z,320
2016-05-22T13:44:31.112Z,315
2016-05-22T13:45:31.132Z,425
2016-05-22T13:46:31.087Z,410
2016-05-22T13:47:31.090Z,355
2016-05-22T13:48:31.092Z,300
2016-05-22T13:49:30.908Z,265
2016-05-22T13:50:31.067Z,245
2016-05-22T13:51:31.069Z,225
2016-05-22T13:52:30.900Z,215
2016-05-22T13:53:31.044Z,185
2016-05-22T13:54:31.046Z,200
2016-05-22T13:55:31.049Z,215
2016-05-22T13:56:31.067Z,210
2016-05-22T13:57:31.038Z,205
2016-05-22T13:58:30.870Z,190
2016-05-22T13:59:31.013Z,180
2016-05-22T14:00:30.843Z,195
2016-05-22T14:01:31.002Z,200
2016-05-22T14:02:30.849Z,210
2016-05-22T14:03:30.992Z,210
2016-05-22T14:04:30.995Z,220